createdAt,value
2019-03-22T00:01:50.288Z,82.80
2019-03-22T00:04:20.166Z,84.40
2019-03-22T00:06:50.125Z,84.60
2019-03-22T00:09:20.163Z,84.00
2019-03-22T00:11:50.123Z,82.50
2019-03-22T00:14:20.098Z,81.50
2019-03-22T00:16:50.081Z,84.10
2019-03-22T00:19:19.953Z,83.50
2019-03-22T00:21:49.855Z,83.00
2019-03-22T00:24:19.896Z,82.40
2019-03-22T00:26:49.813Z,81.30
2019-03-22T00:29:19.648Z,81.60
2019-03-22T00:31:49.532Z,80.40
2019-03-22T00:34:19.440Z,79.70
2019-03-22T00:36:50.337Z,80.30
2019-03-22T00:39:20.317Z,80.00
2019-03-22T00:41:50.206Z,80.40
2019-03-22T00:44:20.033Z,80.80
2019-03-22T00:46:49.879Z,81.20
2019-03-22T00:49:19.775Z,80.40
2019-03-22T00:51:49.588Z,80.40
2019-03-22T00:54:19.421Z,79.70
2019-03-22T00:56:49.235Z,80.90
2019-03-22T00:59:19.196Z,81.40
2019-03-22T01:01:49.081Z,82.20
2019-03-22T01:04:19.059Z,82.90
2019-03-22T01:06:48.960Z,83.80
2019-03-22T01:09:18.995Z,84.70
2019-03-22T01:11:48.890Z,86.20
2019-03-22T01:14:18.928Z,86.60
2019-03-22T01:16:48.831Z,87.10
2019-03-22T01:19:18.722Z,86.50
2019-03-22T01:21:48.629Z,88.10
2019-03-22T01:24:18.587Z,87.50
2019-03-22T01:26:48.423Z,87.60
2019-03-22T01:29:18.375Z,87.10
2019-03-22T01:31:48.343Z,84.20
2019-03-22T01:34:18.203Z,82.70
2019-03-22T01:36:48.132Z,82.50
2019-03-22T01:39:18.022Z,81.70
2019-03-22T01:41:47.933Z,82.70
2019-03-22T01:44:17.816Z,83.30
2019-03-22T01:46:47.715Z,84.00
2019-03-22T01:49:17.693Z,84.50
2019-03-22T01:51:47.532Z,84.30
2019-03-22T01:54:17.488Z,83.10
2019-03-22T01:56:47.476Z,81.40
2019-03-22T01:59:18.367Z,80.20
2019-03-22T02:01:48.191Z,78.70
2019-03-22T02:04:18.085Z,79.60
2019-03-22T02:06:47.997Z,79.80
2019-03-22T02:09:17.885Z,80.00
2019-03-22T02:11:47.820Z,80.30
2019-03-22T02:14:17.714Z,78.10
2019-03-22T02:16:47.633Z,76.80
2019-03-22T02:19:17.464Z,75.20
2019-03-22T02:21:47.437Z,74.90
2019-03-22T02:24:17.317Z,74.90
2019-03-22T02:26:47.167Z,75.10
2019-03-22T02:29:17.078Z,77.70
2019-03-22T02:31:47.037Z,78.70
2019-03-22T02:34:16.943Z,80.30
2019-03-22T02:36:46.833Z,81.30
2019-03-22T02:39:16.882Z,82.50
2019-03-22T02:41:46.786Z,82.50
2019-03-22T02:44:16.624Z,82.60
2019-03-22T02:46:46.514Z,83.40
2019-03-22T02:49:16.352Z,84.50
2019-03-22T02:51:46.266Z,85.50
2019-03-22T02:54:16.266Z,85.50
2019-03-22T02:56:46.080Z,85.40
2019-03-22T02:59:16.017Z,85.40
2019-03-22T03:01:45.910Z,85.00
2019-03-22T03:04:15.726Z,85.60
2019-03-22T03:06:45.645Z,83.40
2019-03-22T03:09:15.523Z,80.60
2019-03-22T03:11:45.357Z,78.50
2019-03-22T03:14:15.176Z,77.70
2019-03-22T03:16:45.170Z,78.00
2019-03-22T03:19:15.066Z,79.90
2019-03-22T03:21:44.964Z,81.20
2019-03-22T03:24:14.892Z,82.50
2019-03-22T03:26:44.782Z,84.00
2019-03-22T03:29:14.735Z,84.20
2019-03-22T03:31:44.632Z,84.60
2019-03-22T03:34:15.623Z,85.80
2019-03-22T03:36:45.523Z,87.30
2019-03-22T03:39:15.420Z,88.10
2019-03-22T03:41:45.354Z,89.20
2019-03-22T03:44:15.241Z,89.60
2019-03-22T03:46:45.238Z,90.00
2019-03-22T03:49:15.141Z,90.30
2019-03-22T03:51:45.109Z,90.50
2019-03-22T03:54:14.937Z,90.60
2019-03-22T03:56:44.896Z,90.70
2019-03-22T03:59:14.883Z,90.90
2019-03-22T04:01:44.704Z,91.50
2019-03-22T04:04:14.694Z,91.00
2019-03-22T04:06:44.579Z,91.30
2019-03-22T04:09:14.505Z,91.40
2019-03-22T04:11:44.393Z,91.90
2019-03-22T04:14:14.384Z,91.60
2019-03-22T04:16:44.265Z,91.60
2019-03-22T04:19:14.161Z,91.40
2019-03-22T04:21:44.048Z,91.30
2019-03-22T04:24:13.960Z,91.50
2019-03-22T04:26:43.840Z,91.60
2019-03-22T04:29:13.686Z,91.40
2019-03-22T04:31:43.578Z,90.60
2019-03-22T04:34:13.546Z,90.80
2019-03-22T04:36:43.378Z,90.50
2019-03-22T04:39:13.276Z,90.20
2019-03-22T04:41:43.249Z,89.00
2019-03-22T04:44:13.246Z,89.10
2019-03-22T04:46:43.289Z,89.00
2019-03-22T04:49:13.137Z,89.50
2019-03-22T04:51:43.213Z,90.50
2019-03-22T04:54:13.187Z,90.30
2019-03-22T04:56:43.009Z,90.30
2019-03-22T04:59:19.026Z,89.40
2019-03-22T05:01:44.636Z,87.20
2019-03-22T05:04:14.456Z,86.80
2019-03-22T05:06:45.446Z,87.50
2019-03-22T05:09:15.345Z,88.20
2019-03-22T05:11:45.348Z,89.80
2019-03-22T05:14:15.477Z,89.90
2019-03-22T05:16:45.384Z,90.30
2019-03-22T05:19:15.281Z,90.40
2019-03-22T05:21:45.255Z,90.40
2019-03-22T05:24:15.162Z,90.80
2019-03-22T05:26:45.054Z,90.90
2019-03-22T05:29:14.885Z,91.00
2019-03-22T05:31:57.093Z,90.80
2019-03-22T05:34:28.240Z,90.60
2019-03-22T05:36:58.071Z,90.10
2019-03-22T05:39:28.039Z,89.30
2019-03-22T05:41:57.935Z,89.00
2019-03-22T05:44:27.835Z,88.60
2019-03-22T05:46:57.783Z,89.40
2019-03-22T05:49:27.623Z,88.60
2019-03-22T05:51:57.452Z,89.00
2019-03-22T05:54:27.299Z,88.70
2019-03-22T05:56:57.122Z,87.60
2019-03-22T05:59:27.022Z,86.70
2019-03-22T06:01:56.908Z,85.60
2019-03-22T06:04:26.748Z,85.50
2019-03-22T06:06:56.580Z,85.70
2019-03-22T06:09:26.499Z,85.70
2019-03-22T06:11:56.312Z,85.70
2019-03-22T06:14:26.345Z,85.00
2019-03-22T06:16:56.232Z,84.50
2019-03-22T06:19:26.139Z,85.30
2019-03-22T06:21:56.029Z,87.80
2019-03-22T06:24:25.915Z,88.60
2019-03-22T06:26:55.886Z,88.10
2019-03-22T06:29:26.930Z,86.50
2019-03-22T06:31:56.837Z,85.10
2019-03-22T06:34:26.795Z,84.90
2019-03-22T06:36:56.630Z,84.00
2019-03-22T06:39:26.449Z,83.40
2019-03-22T06:41:56.425Z,82.20
2019-03-22T06:44:26.244Z,80.70
2019-03-22T06:46:56.215Z,79.80
2019-03-22T06:49:26.039Z,79.30
2019-03-22T06:51:55.947Z,78.80
2019-03-22T06:54:31.440Z,78.60
2019-03-22T06:56:57.289Z,78.30
2019-03-22T06:59:27.186Z,77.40
2019-03-22T07:01:57.084Z,77.10
2019-03-22T07:04:27.059Z,76.10
2019-03-22T07:06:56.894Z,74.50
2019-03-22T07:09:26.912Z,73.70
2019-03-22T07:11:56.777Z,73.10
2019-03-22T07:14:26.668Z,73.60
2019-03-22T07:16:58.771Z,72.50
2019-03-22T07:19:27.947Z,72.30
2019-03-22T07:21:57.775Z,70.50
2019-03-22T07:24:27.675Z,70.10
2019-03-22T07:26:57.567Z,70.20
2019-03-22T07:29:27.399Z,69.10
2019-03-22T07:31:57.303Z,68.60
2019-03-22T07:34:27.203Z,69.00
2019-03-22T07:36:57.093Z,70.20
2019-03-22T07:39:27.008Z,68.90
2019-03-22T07:41:56.891Z,69.70
2019-03-22T07:44:26.797Z,69.30
2019-03-22T07:46:56.686Z,68.00
2019-03-22T07:49:26.589Z,66.20
2019-03-22T07:51:56.484Z,63.60
2019-03-22T07:54:26.325Z,65.40
2019-03-22T07:56:56.287Z,64.70
2019-03-22T07:59:26.147Z,62.10
2019-03-22T08:01:56.039Z,60.60
2019-03-22T08:04:26.084Z,58.30
2019-03-22T08:06:55.984Z,59.60
2019-03-22T08:09:25.881Z,60.90
2019-03-22T08:11:55.911Z,59.60
2019-03-22T08:14:25.761Z,59.30
2019-03-22T08:16:55.675Z,57.40
2019-03-22T08:19:25.577Z,55.60
2019-03-22T08:21:55.485Z,55.70
2019-03-22T08:24:25.460Z,53.00
2019-03-22T08:26:55.374Z,56.20
2019-03-22T08:29:25.343Z,53.30
2019-03-22T08:31:55.319Z,53.00
2019-03-22T08:34:25.164Z,52.40
2019-03-22T08:36:55.075Z,53.10
2019-03-22T08:39:24.898Z,53.60
2019-03-22T08:41:54.815Z,52.30
2019-03-22T08:44:24.732Z,52.20
2019-03-22T08:46:54.544Z,51.10
2019-03-22T08:49:24.488Z,52.00
2019-03-22T08:51:54.706Z,52.10
2019-03-22T08:54:24.630Z,51.60
2019-03-22T08:56:54.459Z,51.60
2019-03-22T08:59:24.292Z,50.70
2019-03-22T09:01:54.195Z,50.20
2019-03-22T09:04:24.104Z,51.00
2019-03-22T09:06:54.092Z,49.20
2019-03-22T09:09:24.144Z,47.50
2019-03-22T09:11:55.029Z,48.00
2019-03-22T09:14:24.900Z,46.70
2019-03-22T09:16:54.758Z,47.70
2019-03-22T09:19:24.598Z,48.80
2019-03-22T09:21:54.434Z,48.90
2019-03-22T09:24:24.408Z,47.00
2019-03-22T09:26:54.286Z,46.70
2019-03-22T09:29:24.202Z,46.50
2019-03-22T09:31:54.071Z,47.50
2019-03-22T09:34:33.179Z,49.40
2019-03-22T09:36:55.499Z,46.60
2019-03-22T09:39:25.363Z,45.80
2019-03-22T09:41:55.197Z,47.00
2019-03-22T09:44:27.984Z,44.60
2019-03-22T09:46:56.623Z,44.00
2019-03-22T09:49:26.474Z,46.70
2019-03-22T09:51:56.304Z,47.80
2019-03-22T09:54:26.185Z,46.20
2019-03-22T09:56:56.038Z,46.70
2019-03-22T09:59:25.913Z,44.40
2019-03-22T10:01:55.779Z,47.30
2019-03-22T10:04:25.756Z,44.30
2019-03-22T10:06:55.756Z,42.60
2019-03-22T10:09:26.674Z,43.90
2019-03-22T10:11:56.612Z,42.40
2019-03-22T10:14:26.549Z,42.10
2019-03-22T10:16:56.497Z,40.50
2019-03-22T10:19:26.362Z,41.50
2019-03-22T10:21:56.173Z,42.30
2019-03-22T10:24:26.204Z,41.60
2019-03-22T10:26:56.264Z,42.50
2019-03-22T10:29:29.104Z,42.70
2019-03-22T10:31:59.072Z,41.80
2019-03-22T10:34:28.956Z,41.30
2019-03-22T10:36:58.856Z,42.50
2019-03-22T10:39:28.850Z,40.60
2019-03-22T10:41:58.672Z,40.20
2019-03-22T10:44:28.601Z,41.00
2019-03-22T10:46:58.418Z,41.50
2019-03-22T10:49:28.319Z,41.60
2019-03-22T10:51:58.353Z,41.00
2019-03-22T10:54:28.552Z,37.10
2019-03-22T10:56:58.428Z,37.00
2019-03-22T10:59:28.344Z,41.40
2019-03-22T11:02:03.579Z,38.20
2019-03-22T11:04:29.860Z,38.60
2019-03-22T11:06:59.681Z,39.30
2019-03-22T11:09:29.523Z,37.40
2019-03-22T11:11:59.437Z,39.00
2019-03-22T11:14:29.369Z,41.20
2019-03-22T11:16:59.265Z,39.20
2019-03-22T11:19:29.192Z,35.10
2019-03-22T11:21:59.086Z,37.90
2019-03-22T11:24:29.056Z,37.40
2019-03-22T11:26:59.033Z,33.10
2019-03-22T11:29:28.957Z,31.80
2019-03-22T11:31:58.785Z,32.40
2019-03-22T11:34:28.704Z,33.10
2019-03-22T11:36:58.678Z,36.00
2019-03-22T11:39:28.610Z,38.90
2019-03-22T11:41:58.517Z,37.10
2019-03-22T11:44:28.492Z,36.00
2019-03-22T11:46:58.402Z,34.80
2019-03-22T11:49:29.173Z,35.70
2019-03-22T11:51:59.009Z,36.60
2019-03-22T11:54:28.908Z,35.00
2019-03-22T11:56:58.818Z,31.80
2019-03-22T11:59:29.711Z,33.70
2019-03-22T12:01:59.772Z,31.50
2019-03-22T12:04:30.682Z,31.70
2019-03-22T12:07:00.595Z,32.20
2019-03-22T12:09:30.498Z,33.80
2019-03-22T12:12:00.347Z,34.80
2019-03-22T12:14:30.257Z,31.10
2019-03-22T12:17:00.202Z,32.90
2019-03-22T12:19:30.101Z,30.50
2019-03-22T12:22:00.002Z,34.10
2019-03-22T12:24:29.923Z,37.20
2019-03-22T12:26:59.833Z,33.30
2019-03-22T12:29:29.822Z,33.80
2019-03-22T12:32:02.698Z,29.30
2019-03-22T12:34:32.623Z,29.80
2019-03-22T12:37:02.461Z,29.90
2019-03-22T12:39:32.308Z,29.90
2019-03-22T12:42:02.135Z,30.00
2019-03-22T12:44:32.121Z,31.30
2019-03-22T12:47:01.957Z,31.10
2019-03-22T12:49:32.018Z,30.20
2019-03-22T12:52:02.096Z,29.30
2019-03-22T12:54:32.079Z,30.00
2019-03-22T12:57:01.980Z,28.80
2019-03-22T12:59:32.985Z,33.90
2019-03-22T13:02:02.831Z,35.40
2019-03-22T13:04:32.681Z,29.90
2019-03-22T13:07:02.603Z,31.50
2019-03-22T13:09:32.505Z,33.20
2019-03-22T13:12:02.339Z,31.00
2019-03-22T13:14:32.315Z,29.60
2019-03-22T13:17:02.166Z,27.90
2019-03-22T13:19:32.141Z,30.00
2019-03-22T13:22:02.070Z,32.60
2019-03-22T13:24:31.971Z,29.40
2019-03-22T13:27:01.859Z,30.60
2019-03-22T13:29:31.788Z,32.00
2019-03-22T13:32:01.699Z,31.70
2019-03-22T13:34:31.742Z,28.10
2019-03-22T13:37:01.647Z,29.30
2019-03-22T13:39:31.464Z,28.10
2019-03-22T13:42:01.478Z,28.50
2019-03-22T13:44:31.379Z,29.60
2019-03-22T13:47:02.280Z,28.50
2019-03-22T13:49:32.110Z,27.70
2019-03-22T13:52:02.013Z,26.40
2019-03-22T13:54:31.938Z,26.60
2019-03-22T13:57:01.981Z,26.20
2019-03-22T13:59:31.905Z,26.30
2019-03-22T14:02:01.787Z,26.70
2019-03-22T14:04:32.695Z,26.10
2019-03-22T14:07:02.532Z,28.80
2019-03-22T14:09:32.574Z,25.90
2019-03-22T14:12:02.409Z,25.70
2019-03-22T14:14:32.349Z,27.80
2019-03-22T14:17:02.256Z,28.70
2019-03-22T14:19:32.095Z,28.30
2019-03-22T14:22:01.928Z,28.00
2019-03-22T14:24:31.912Z,27.10
2019-03-22T14:27:01.870Z,28.90
2019-03-22T14:29:31.736Z,26.40
2019-03-22T14:32:01.586Z,25.50
2019-03-22T14:34:31.475Z,26.00
2019-03-22T14:37:01.328Z,25.50
2019-03-22T14:39:31.297Z,26.70
2019-03-22T14:42:01.214Z,27.00
2019-03-22T14:44:31.039Z,27.00
2019-03-22T14:47:00.965Z,27.50
2019-03-22T14:49:30.796Z,25.00
2019-03-22T14:52:00.639Z,24.40
2019-03-22T14:54:30.553Z,24.00
2019-03-22T14:57:00.478Z,24.00
2019-03-22T14:59:30.321Z,23.70
2019-03-22T15:02:00.155Z,25.20
2019-03-22T15:04:30.130Z,23.90
2019-03-22T15:07:00.094Z,23.90
2019-03-22T15:09:30.004Z,24.80
2019-03-22T15:11:59.983Z,24.90
2019-03-22T15:14:31.539Z,25.40
2019-03-22T15:17:19.056Z,26.30
2019-03-22T15:20:00.557Z,25.00
2019-03-22T15:22:50.278Z,25.20
2019-03-22T15:25:33.808Z,28.00
2019-03-22T15:28:08.452Z,26.70
2019-03-22T15:30:51.657Z,26.20
2019-03-22T15:33:34.570Z,25.90
2019-03-22T15:36:08.372Z,24.70
2019-03-22T15:38:40.191Z,25.10
2019-03-22T15:41:10.176Z,25.10
2019-03-22T15:43:40.075Z,25.30
2019-03-22T15:46:09.988Z,26.40
2019-03-22T15:48:39.884Z,25.50
2019-03-22T15:51:09.782Z,25.60
2019-03-22T15:53:39.757Z,25.90
2019-03-22T15:56:09.679Z,27.40
2019-03-22T15:58:40.562Z,26.00
2019-03-22T16:01:10.545Z,24.90
2019-03-22T16:03:44.328Z,25.00
2019-03-22T16:06:12.030Z,26.50
2019-03-22T16:08:41.862Z,26.30
2019-03-22T16:11:12.704Z,25.80
2019-03-22T16:13:42.536Z,24.90
2019-03-22T16:16:12.372Z,24.20
2019-03-22T16:18:42.290Z,24.90
2019-03-22T16:21:12.196Z,24.50
2019-03-22T16:23:42.045Z,25.50
2019-03-22T16:26:11.956Z,26.40
2019-03-22T16:28:41.863Z,27.00
2019-03-22T16:31:11.797Z,27.30
2019-03-22T16:33:41.597Z,28.10
2019-03-22T16:36:11.518Z,27.70
2019-03-22T16:38:41.490Z,27.70
2019-03-22T16:41:11.413Z,28.20
2019-03-22T16:43:41.235Z,29.00
2019-03-22T16:46:11.169Z,29.10
2019-03-22T16:48:41.073Z,29.90
2019-03-22T16:51:11.024Z,30.00
2019-03-22T16:53:40.936Z,30.70
2019-03-22T16:56:10.978Z,30.00
2019-03-22T16:58:40.817Z,29.80
2019-03-22T17:01:10.781Z,29.70
2019-03-22T17:03:40.764Z,29.70
2019-03-22T17:06:10.596Z,30.40
2019-03-22T17:08:40.440Z,30.90
2019-03-22T17:11:11.740Z,31.10
2019-03-22T17:13:41.709Z,32.40
2019-03-22T17:16:11.787Z,32.90
2019-03-22T17:18:41.891Z,33.90
2019-03-22T17:21:11.972Z,34.30
2019-03-22T17:23:42.095Z,35.10
2019-03-22T17:26:12.304Z,36.10
2019-03-22T17:28:42.558Z,35.60
2019-03-22T17:31:13.784Z,35.90
2019-03-22T17:33:44.045Z,36.40
2019-03-22T17:36:14.268Z,37.30
2019-03-22T17:38:44.355Z,37.70
2019-03-22T17:41:14.519Z,37.90
2019-03-22T17:43:44.603Z,38.40
2019-03-22T17:46:14.706Z,38.80
2019-03-22T17:48:44.940Z,39.60
2019-03-22T17:51:15.114Z,44.90
2019-03-22T17:53:45.271Z,41.80
2019-03-22T17:56:16.591Z,41.00
2019-03-22T17:58:46.957Z,39.90
2019-03-22T18:01:18.106Z,38.60
2019-03-22T18:03:48.250Z,38.40
2019-03-22T18:06:18.445Z,38.50
2019-03-22T18:08:48.574Z,39.10
2019-03-22T18:11:18.715Z,39.30
2019-03-22T18:13:48.786Z,39.60
2019-03-22T18:16:19.025Z,40.20
2019-03-22T18:18:49.102Z,41.10
2019-03-22T18:21:19.214Z,42.50
2019-03-22T18:23:49.439Z,45.30
2019-03-22T18:26:19.663Z,44.50
2019-03-22T18:28:49.888Z,44.70
2019-03-22T18:31:19.971Z,46.80
2019-03-22T18:33:49.992Z,46.80
2019-03-22T18:36:20.072Z,47.70
2019-03-22T18:38:50.246Z,48.30
2019-03-22T18:41:20.394Z,50.40
2019-03-22T18:43:50.620Z,50.90
2019-03-22T18:46:20.782Z,52.00
2019-03-22T18:48:50.953Z,52.00
2019-03-22T18:51:21.106Z,53.50
2019-03-22T18:53:51.277Z,55.80
2019-03-22T18:56:21.426Z,54.00
2019-03-22T18:58:51.655Z,54.50
2019-03-22T19:01:21.791Z,54.60
2019-03-22T19:03:52.033Z,54.20
2019-03-22T19:06:22.254Z,53.90
2019-03-22T19:08:52.344Z,53.50
2019-03-22T19:11:22.494Z,54.30
2019-03-22T19:13:52.652Z,54.70
2019-03-22T19:16:22.878Z,54.50
2019-03-22T19:18:53.139Z,54.40
2019-03-22T19:21:23.290Z,54.00
2019-03-22T19:23:53.402Z,54.00
2019-03-22T19:26:23.573Z,53.80
2019-03-22T19:28:53.864Z,53.70
2019-03-22T19:31:23.965Z,53.70
2019-03-22T19:33:54.054Z,54.20
2019-03-22T19:36:24.084Z,53.90
2019-03-22T19:38:54.303Z,53.90
2019-03-22T19:41:24.477Z,53.40
2019-03-22T19:43:54.635Z,53.70
2019-03-22T19:46:24.729Z,53.90
2019-03-22T19:48:54.959Z,54.20
2019-03-22T19:51:25.132Z,54.20
2019-03-22T19:53:55.363Z,54.00
2019-03-22T19:56:25.607Z,53.30
2019-03-22T19:58:56.756Z,53.30
2019-03-22T20:01:26.884Z,52.50
2019-03-22T20:03:56.963Z,52.20
2019-03-22T20:06:27.135Z,52.00
2019-03-22T20:08:57.256Z,52.00
2019-03-22T20:11:27.447Z,51.90
2019-03-22T20:13:57.644Z,51.80
2019-03-22T20:16:27.794Z,52.00
2019-03-22T20:18:57.947Z,52.20
2019-03-22T20:21:28.022Z,52.90
2019-03-22T20:23:58.212Z,53.70
2019-03-22T20:26:28.357Z,53.10
2019-03-22T20:28:58.459Z,54.40
2019-03-22T20:31:28.780Z,55.10
2019-03-22T20:33:59.007Z,55.60
2019-03-22T20:36:29.138Z,57.20
2019-03-22T20:38:59.163Z,56.10
2019-03-22T20:41:29.309Z,58.30
2019-03-22T20:43:59.528Z,57.30
2019-03-22T20:46:29.683Z,59.70
2019-03-22T20:48:59.973Z,61.20
2019-03-22T20:51:30.045Z,62.70
2019-03-22T20:54:00.349Z,66.00
2019-03-22T20:56:30.469Z,66.70
2019-03-22T20:59:00.680Z,66.50
2019-03-22T21:01:30.908Z,69.00
2019-03-22T21:04:01.127Z,68.40
2019-03-22T21:06:31.379Z,69.10
2019-03-22T21:09:01.656Z,69.50
2019-03-22T21:11:33.272Z,70.50
2019-03-22T21:14:03.421Z,71.20
2019-03-22T21:16:33.660Z,70.50
2019-03-22T21:19:03.737Z,67.80
2019-03-22T21:21:36.566Z,66.30
2019-03-22T21:24:05.780Z,64.40
2019-03-22T21:26:35.964Z,63.30
2019-03-22T21:29:06.180Z,63.60
2019-03-22T21:31:36.413Z,64.10
2019-03-22T21:34:06.628Z,64.60
2019-03-22T21:36:36.890Z,64.60
2019-03-22T21:39:08.993Z,64.10
2019-03-22T21:41:39.148Z,63.90
2019-03-22T21:44:09.306Z,63.40
2019-03-22T21:46:39.529Z,62.90
2019-03-22T21:49:09.542Z,61.70
2019-03-22T21:51:39.776Z,61.10
2019-03-22T21:54:09.845Z,61.30
2019-03-22T21:56:39.908Z,61.80
2019-03-22T21:59:10.002Z,62.00
2019-03-22T22:01:40.085Z,65.20
2019-03-22T22:04:10.309Z,63.40
2019-03-22T22:06:40.530Z,63.10
2019-03-22T22:09:10.703Z,62.70
2019-03-22T22:11:40.924Z,62.10
2019-03-22T22:14:11.155Z,61.70
2019-03-22T22:16:41.329Z,60.50
2019-03-22T22:19:11.539Z,60.20
2019-03-22T22:21:41.762Z,59.80
2019-03-22T22:24:11.903Z,59.10
2019-03-22T22:26:41.984Z,58.00
2019-03-22T22:29:12.076Z,57.40
2019-03-22T22:31:42.173Z,57.20
2019-03-22T22:34:12.254Z,57.00
2019-03-22T22:36:42.339Z,57.10
2019-03-22T22:39:12.407Z,57.10
2019-03-22T22:41:42.647Z,56.80
2019-03-22T22:44:12.791Z,56.20
2019-03-22T22:46:42.944Z,55.90
2019-03-22T22:49:13.028Z,56.20
2019-03-22T22:51:43.125Z,57.80
2019-03-22T22:54:13.266Z,57.90
2019-03-22T22:56:43.352Z,59.40
2019-03-22T22:59:13.488Z,58.80
2019-03-22T23:01:43.643Z,61.40
2019-03-22T23:04:13.866Z,61.60
2019-03-22T23:06:43.980Z,60.50
2019-03-22T23:09:14.203Z,59.50
2019-03-22T23:11:44.276Z,59.20
2019-03-22T23:14:14.515Z,59.10
2019-03-22T23:16:44.731Z,58.30
2019-03-22T23:19:14.959Z,57.50
2019-03-22T23:21:45.042Z,57.20
2019-03-22T23:27:21.410Z,58.80
2019-03-22T23:29:51.605Z,59.00
2019-03-22T23:32:21.867Z,59.50
2019-03-22T23:34:58.976Z,59.90
2019-03-22T23:37:23.952Z,59.00
2019-03-22T23:39:54.215Z,60.90
2019-03-22T23:42:24.418Z,62.00
2019-03-22T23:44:54.807Z,61.30
2019-03-22T23:47:25.075Z,61.20
2019-03-22T23:49:55.263Z,61.40
2019-03-22T23:52:25.414Z,61.10
2019-03-22T23:54:55.632Z,61.50
2019-03-22T23:57:25.715Z,61.30
2019-03-22T23:59:55.716Z,60.70
